sensor_id;sensor_type;location;lat;lon;timestamp;pressure;altitude;pressure_sealevel;temperature;humidity
62632;BME280;48703;51.248;-0.546;2023-11-19T00:00:26;100242;;;11.61;100.00
62632;BME280;48703;51.248;-0.546;2023-11-19T00:03:28;100241;;;11.59;100.00
62632;BME280;48703;51.248;-0.546;2023-11-19T00:06:30;100242;;;11.58;100.00
62632;BME280;48703;51.248;-0.546;2023-11-19T00:09:33;100231;;;11.55;100.00
62632;BME280;48703;51.248;-0.546;2023-11-19T00:12:35;100235;;;11.54;100.00
62632;BME280;48703;51.248;-0.546;2023-11-19T00:15:37;100240;;;11.52;100.00
62632;BME280;48703;51.248;-0.546;2023-11-19T00:18:39;100241;;;11.50;100.00
62632;BME280;48703;51.248;-0.546;2023-11-19T00:21:41;100247;;;11.49;100.00
62632;BME280;48703;51.248;-0.546;2023-11-19T00:24:43;100246;;;11.46;100.00
62632;BME280;48703;51.248;-0.546;2023-11-19T00:27:45;100244;;;11.45;100.00
62632;BME280;48703;51.248;-0.546;2023-11-19T00:30:47;100241;;;11.43;100.00
62632;BME280;48703;51.248;-0.546;2023-11-19T00:33:49;100239;;;11.42;100.00
62632;BME280;48703;51.248;-0.546;2023-11-19T00:36:51;100235;;;11.41;100.00
62632;BME280;48703;51.248;-0.546;2023-11-19T00:39:53;100230;;;11.39;100.00
62632;BME280;48703;51.248;-0.546;2023-11-19T00:42:55;100233;;;11.38;100.00
62632;BME280;48703;51.248;-0.546;2023-11-19T00:45:57;100239;;;11.36;100.00
62632;BME280;48703;51.248;-0.546;2023-11-19T00:48:59;100247;;;11.35;100.00
62632;BME280;48703;51.248;-0.546;2023-11-19T00:52:02;100245;;;11.34;100.00
62632;BME280;48703;51.248;-0.546;2023-11-19T00:55:04;100243;;;11.34;100.00
62632;BME280;48703;51.248;-0.546;2023-11-19T00:58:06;100239;;;11.32;100.00
62632;BME280;48703;51.248;-0.546;2023-11-19T01:01:08;100248;;;11.31;100.00
62632;BME280;48703;51.248;-0.546;2023-11-19T01:04:10;100245;;;11.30;100.00
62632;BME280;48703;51.248;-0.546;2023-11-19T01:07:12;100236;;;11.29;100.00
62632;BME280;48703;51.248;-0.546;2023-11-19T01:10:14;100232;;;11.28;100.00
62632;BME280;48703;51.248;-0.546;2023-11-19T01:13:16;100226;;;11.26;100.00
62632;BME280;48703;51.248;-0.546;2023-11-19T01:16:18;100224;;;11.26;100.00
62632;BME280;48703;51.248;-0.546;2023-11-19T01:19:21;100213;;;11.25;100.00
62632;BME280;48703;51.248;-0.546;2023-11-19T01:22:22;100222;;;11.25;100.00
62632;BME280;48703;51.248;-0.546;2023-11-19T01:25:24;100227;;;11.25;100.00
62632;BME280;48703;51.248;-0.546;2023-11-19T01:28:26;100223;;;11.23;100.00
62632;BME280;48703;51.248;-0.546;2023-11-19T01:31:28;100218;;;11.24;100.00
62632;BME280;48703;51.248;-0.546;2023-11-19T01:34:30;100215;;;11.23;100.00
62632;BME280;48703;51.248;-0.546;2023-11-19T01:37:33;100211;;;11.20;100.00
62632;BME280;48703;51.248;-0.546;2023-11-19T01:40:35;100205;;;11.19;100.00
62632;BME280;48703;51.248;-0.546;2023-11-19T01:43:37;100201;;;11.18;100.00
62632;BME280;48703;51.248;-0.546;2023-11-19T01:46:40;100197;;;11.17;100.00
62632;BME280;48703;51.248;-0.546;2023-11-19T01:49:41;100209;;;11.17;100.00
62632;BME280;48703;51.248;-0.546;2023-11-19T01:52:43;100215;;;11.16;100.00
62632;BME280;48703;51.248;-0.546;2023-11-19T01:55:45;100215;;;11.14;100.00
62632;BME280;48703;51.248;-0.546;2023-11-19T01:58:47;100222;;;11.13;100.00
62632;BME280;48703;51.248;-0.546;2023-11-19T02:01:49;100218;;;11.12;100.00
62632;BME280;48703;51.248;-0.546;2023-11-19T02:04:51;100224;;;11.11;100.00
62632;BME280;48703;51.248;-0.546;2023-11-19T02:07:53;100223;;;11.11;100.00
62632;BME280;48703;51.248;-0.546;2023-11-19T02:10:55;100221;;;11.10;100.00
62632;BME280;48703;51.248;-0.546;2023-11-19T02:13:57;100222;;;11.08;100.00
62632;BME280;48703;51.248;-0.546;2023-11-19T02:16:59;100218;;;11.08;100.00
62632;BME280;48703;51.248;-0.546;2023-11-19T02:20:02;100220;;;11.08;100.00
62632;BME280;48703;51.248;-0.546;2023-11-19T02:23:04;100216;;;11.07;100.00
62632;BME280;48703;51.248;-0.546;2023-11-19T02:26:09;100218;;;11.06;100.00
62632;BME280;48703;51.248;-0.546;2023-11-19T02:29:08;100219;;;11.05;100.00
62632;BME280;48703;51.248;-0.546;2023-11-19T02:32:10;100220;;;11.05;100.00
62632;BME280;48703;51.248;-0.546;2023-11-19T02:35:12;100216;;;11.06;100.00
62632;BME280;48703;51.248;-0.546;2023-11-19T02:38:14;100215;;;11.06;100.00
62632;BME280;48703;51.248;-0.546;2023-11-19T02:41:16;100203;;;11.06;100.00
62632;BME280;48703;51.248;-0.546;2023-11-19T02:44:18;100197;;;11.05;100.00
62632;BME280;48703;51.248;-0.546;2023-11-19T02:47:20;100199;;;11.04;100.00
62632;BME280;48703;51.248;-0.546;2023-11-19T02:50:22;100197;;;11.04;100.00
62632;BME280;48703;51.248;-0.546;2023-11-19T02:53:24;100197;;;11.05;100.00
62632;BME280;48703;51.248;-0.546;2023-11-19T02:56:26;100194;;;11.05;100.00
62632;BME280;48703;51.248;-0.546;2023-11-19T02:59:28;100187;;;11.05;100.00
62632;BME280;48703;51.248;-0.546;2023-11-19T03:02:30;100182;;;11.05;100.00
62632;BME280;48703;51.248;-0.546;2023-11-19T03:05:33;100192;;;11.05;100.00
62632;BME280;48703;51.248;-0.546;2023-11-19T03:08:35;100188;;;11.04;100.00
62632;BME280;48703;51.248;-0.546;2023-11-19T03:11:37;100196;;;11.04;100.00
62632;BME280;48703;51.248;-0.546;2023-11-19T03:14:39;100191;;;11.03;100.00
62632;BME280;48703;51.248;-0.546;2023-11-19T03:17:41;100184;;;11.02;100.00
62632;BME280;48703;51.248;-0.546;2023-11-19T03:20:43;100176;;;11.04;100.00
62632;BME280;48703;51.248;-0.546;2023-11-19T03:23:45;100177;;;11.04;100.00
62632;BME280;48703;51.248;-0.546;2023-11-19T03:26:47;100173;;;11.04;100.00
62632;BME280;48703;51.248;-0.546;2023-11-19T03:29:49;100186;;;11.03;100.00
62632;BME280;48703;51.248;-0.546;2023-11-19T03:32:51;100191;;;11.02;100.00
62632;BME280;48703;51.248;-0.546;2023-11-19T03:35:53;100197;;;11.01;100.00
62632;BME280;48703;51.248;-0.546;2023-11-19T03:38:55;100200;;;10.99;100.00
62632;BME280;48703;51.248;-0.546;2023-11-19T03:41:57;100199;;;10.99;100.00
62632;BME280;48703;51.248;-0.546;2023-11-19T03:44:59;100206;;;10.98;100.00
62632;BME280;48703;51.248;-0.546;2023-11-19T03:48:02;100208;;;10.99;100.00
62632;BME280;48703;51.248;-0.546;2023-11-19T03:51:04;100198;;;10.99;100.00
62632;BME280;48703;51.248;-0.546;2023-11-19T03:54:06;100201;;;10.99;100.00
62632;BME280;48703;51.248;-0.546;2023-11-19T03:57:08;100201;;;10.98;100.00
62632;BME280;48703;51.248;-0.546;2023-11-19T04:00:10;100205;;;10.98;100.00
62632;BME280;48703;51.248;-0.546;2023-11-19T04:03:12;100201;;;10.97;100.00
62632;BME280;48703;51.248;-0.546;2023-11-19T04:06:14;100190;;;10.96;100.00
62632;BME280;48703;51.248;-0.546;2023-11-19T04:09:16;100191;;;10.97;100.00
62632;BME280;48703;51.248;-0.546;2023-11-19T04:12:18;100189;;;10.97;100.00
62632;BME280;48703;51.248;-0.546;2023-11-19T04:15:20;100189;;;10.97;100.00
62632;BME280;48703;51.248;-0.546;2023-11-19T04:18:22;100187;;;10.97;100.00
62632;BME280;48703;51.248;-0.546;2023-11-19T04:21:24;100180;;;10.97;100.00
62632;BME280;48703;51.248;-0.546;2023-11-19T04:24:26;100176;;;10.96;100.00
62632;BME280;48703;51.248;-0.546;2023-11-19T04:27:28;100185;;;10.96;100.00
62632;BME280;48703;51.248;-0.546;2023-11-19T04:30:31;100181;;;10.95;100.00
62632;BME280;48703;51.248;-0.546;2023-11-19T04:33:33;100176;;;10.95;100.00
62632;BME280;48703;51.248;-0.546;2023-11-19T04:36:35;100176;;;10.95;100.00
62632;BME280;48703;51.248;-0.546;2023-11-19T04:39:37;100178;;;10.97;100.00
62632;BME280;48703;51.248;-0.546;2023-11-19T04:42:39;100182;;;10.96;100.00
62632;BME280;48703;51.248;-0.546;2023-11-19T04:45:41;100185;;;10.95;100.00
62632;BME280;48703;51.248;-0.546;2023-11-19T04:48:43;100188;;;10.95;100.00
62632;BME280;48703;51.248;-0.546;2023-11-19T04:51:45;100190;;;10.95;100.00
62632;BME280;48703;51.248;-0.546;2023-11-19T04:54:47;100191;;;10.94;100.00
62632;BME280;48703;51.248;-0.546;2023-11-19T04:57:49;100190;;;10.93;100.00
62632;BME280;48703;51.248;-0.546;2023-11-19T05:00:51;100180;;;10.93;100.00
62632;BME280;48703;51.248;-0.546;2023-11-19T05:03:53;100174;;;10.92;100.00
62632;BME280;48703;51.248;-0.546;2023-11-19T05:06:55;100180;;;10.91;100.00
62632;BME280;48703;51.248;-0.546;2023-11-19T05:09:57;100182;;;10.92;100.00
62632;BME280;48703;51.248;-0.546;2023-11-19T05:12:59;100181;;;10.91;100.00
62632;BME280;48703;51.248;-0.546;2023-11-19T05:16:02;100173;;;10.90;100.00
62632;BME280;48703;51.248;-0.546;2023-11-19T05:19:04;100168;;;10.89;100.00
62632;BME280;48703;51.248;-0.546;2023-11-19T05:22:06;100168;;;10.88;100.00
62632;BME280;48703;51.248;-0.546;2023-11-19T05:25:08;100171;;;10.89;100.00
62632;BME280;48703;51.248;-0.546;2023-11-19T05:28:10;100180;;;10.91;100.00
62632;BME280;48703;51.248;-0.546;2023-11-19T05:31:12;100181;;;10.92;100.00
62632;BME280;48703;51.248;-0.546;2023-11-19T05:34:14;100188;;;10.94;100.00
62632;BME280;48703;51.248;-0.546;2023-11-19T05:37:16;100194;;;10.97;100.00
62632;BME280;48703;51.248;-0.546;2023-11-19T05:40:18;100191;;;10.96;100.00
62632;BME280;48703;51.248;-0.546;2023-11-19T05:43:20;100184;;;10.95;100.00
62632;BME280;48703;51.248;-0.546;2023-11-19T05:46:22;100187;;;10.96;100.00
62632;BME280;48703;51.248;-0.546;2023-11-19T05:49:24;100183;;;10.97;100.00
62632;BME280;48703;51.248;-0.546;2023-11-19T05:52:26;100182;;;10.98;100.00
62632;BME280;48703;51.248;-0.546;2023-11-19T05:55:28;100178;;;10.96;100.00
62632;BME280;48703;51.248;-0.546;2023-11-19T05:58:31;100171;;;10.96;100.00
62632;BME280;48703;51.248;-0.546;2023-11-19T06:01:33;100171;;;10.95;100.00
62632;BME280;48703;51.248;-0.546;2023-11-19T06:04:35;100176;;;10.95;100.00
62632;BME280;48703;51.248;-0.546;2023-11-19T06:07:37;100181;;;10.94;100.00
62632;BME280;48703;51.248;-0.546;2023-11-19T06:10:39;100183;;;10.93;100.00
62632;BME280;48703;51.248;-0.546;2023-11-19T06:13:41;100186;;;10.94;100.00
62632;BME280;48703;51.248;-0.546;2023-11-19T06:16:43;100190;;;10.92;100.00
62632;BME280;48703;51.248;-0.546;2023-11-19T06:19:45;100192;;;10.92;100.00
62632;BME280;48703;51.248;-0.546;2023-11-19T06:22:47;100197;;;10.91;100.00
62632;BME280;48703;51.248;-0.546;2023-11-19T06:25:49;100198;;;10.89;100.00
62632;BME280;48703;51.248;-0.546;2023-11-19T06:28:51;100193;;;10.89;100.00
62632;BME280;48703;51.248;-0.546;2023-11-19T06:31:53;100195;;;10.88;100.00
62632;BME280;48703;51.248;-0.546;2023-11-19T06:34:55;100194;;;10.87;100.00
62632;BME280;48703;51.248;-0.546;2023-11-19T06:37:57;100192;;;10.87;100.00
62632;BME280;48703;51.248;-0.546;2023-11-19T06:41:00;100185;;;10.86;100.00
62632;BME280;48703;51.248;-0.546;2023-11-19T06:44:02;100188;;;10.84;100.00
62632;BME280;48703;51.248;-0.546;2023-11-19T06:47:04;100188;;;10.83;100.00
62632;BME280;48703;51.248;-0.546;2023-11-19T06:50:06;100199;;;10.84;100.00
62632;BME280;48703;51.248;-0.546;2023-11-19T06:53:08;100199;;;10.84;100.00
62632;BME280;48703;51.248;-0.546;2023-11-19T06:56:17;100199;;;10.84;100.00
62632;BME280;48703;51.248;-0.546;2023-11-19T06:59:12;100191;;;10.83;100.00
62632;BME280;48703;51.248;-0.546;2023-11-19T07:02:14;100185;;;10.84;100.00
62632;BME280;48703;51.248;-0.546;2023-11-19T07:05:16;100173;;;10.83;100.00
62632;BME280;48703;51.248;-0.546;2023-11-19T07:08:18;100174;;;10.82;100.00
62632;BME280;48703;51.248;-0.546;2023-11-19T07:11:20;100179;;;10.81;100.00
62632;BME280;48703;51.248;-0.546;2023-11-19T07:14:22;100179;;;10.80;100.00
62632;BME280;48703;51.248;-0.546;2023-11-19T07:17:24;100184;;;10.80;100.00
62632;BME280;48703;51.248;-0.546;2023-11-19T07:20:26;100187;;;10.79;100.00
62632;BME280;48703;51.248;-0.546;2023-11-19T07:23:29;100183;;;10.78;100.00
62632;BME280;48703;51.248;-0.546;2023-11-19T07:26:31;100181;;;10.77;100.00
62632;BME280;48703;51.248;-0.546;2023-11-19T07:29:33;100185;;;10.75;100.00
62632;BME280;48703;51.248;-0.546;2023-11-19T07:32:35;100192;;;10.74;100.00
62632;BME280;48703;51.248;-0.546;2023-11-19T07:35:37;100197;;;10.73;100.00
62632;BME280;48703;51.248;-0.546;2023-11-19T07:38:39;100201;;;10.71;100.00
62632;BME280;48703;51.248;-0.546;2023-11-19T07:41:41;100201;;;10.71;100.00
62632;BME280;48703;51.248;-0.546;2023-11-19T07:44:43;100197;;;10.70;100.00
62632;BME280;48703;51.248;-0.546;2023-11-19T07:47:45;100194;;;10.69;100.00
62632;BME280;48703;51.248;-0.546;2023-11-19T07:50:47;100192;;;10.70;100.00
62632;BME280;48703;51.248;-0.546;2023-11-19T07:53:49;100192;;;10.70;100.00
62632;BME280;48703;51.248;-0.546;2023-11-19T07:56:51;100192;;;10.70;100.00
62632;BME280;48703;51.248;-0.546;2023-11-19T07:59:53;100193;;;10.72;100.00
62632;BME280;48703;51.248;-0.546;2023-11-19T08:02:55;100193;;;10.74;100.00
62632;BME280;48703;51.248;-0.546;2023-11-19T08:05:58;100197;;;10.75;100.00
62632;BME280;48703;51.248;-0.546;2023-11-19T08:09:00;100200;;;10.76;100.00
62632;BME280;48703;51.248;-0.546;2023-11-19T08:12:02;100200;;;10.77;100.00
62632;BME280;48703;51.248;-0.546;2023-11-19T08:15:04;100200;;;10.77;100.00
62632;BME280;48703;51.248;-0.546;2023-11-19T08:18:06;100209;;;10.77;100.00
62632;BME280;48703;51.248;-0.546;2023-11-19T08:21:08;100209;;;10.77;100.00
62632;BME280;48703;51.248;-0.546;2023-11-19T08:24:10;100210;;;10.77;100.00
62632;BME280;48703;51.248;-0.546;2023-11-19T08:27:12;100203;;;10.77;100.00
62632;BME280;48703;51.248;-0.546;2023-11-19T08:30:14;100201;;;10.77;100.00
62632;BME280;48703;51.248;-0.546;2023-11-19T08:33:16;100207;;;10.77;100.00
62632;BME280;48703;51.248;-0.546;2023-11-19T08:36:18;100209;;;10.79;100.00
62632;BME280;48703;51.248;-0.546;2023-11-19T08:39:20;100198;;;10.82;100.00
62632;BME280;48703;51.248;-0.546;2023-11-19T08:42:22;100194;;;10.83;100.00
62632;BME280;48703;51.248;-0.546;2023-11-19T08:45:24;100194;;;10.85;100.00
62632;BME280;48703;51.248;-0.546;2023-11-19T08:48:26;100194;;;10.88;100.00
62632;BME280;48703;51.248;-0.546;2023-11-19T08:51:29;100195;;;10.90;100.00
62632;BME280;48703;51.248;-0.546;2023-11-19T08:54:31;100199;;;10.93;100.00
62632;BME280;48703;51.248;-0.546;2023-11-19T08:57:33;100205;;;10.98;100.00
62632;BME280;48703;51.248;-0.546;2023-11-19T09:00:35;100203;;;11.02;100.00
62632;BME280;48703;51.248;-0.546;2023-11-19T09:03:37;100196;;;11.04;100.00
62632;BME280;48703;51.248;-0.546;2023-11-19T09:06:39;100194;;;11.06;100.00
62632;BME280;48703;51.248;-0.546;2023-11-19T09:09:41;100195;;;11.08;100.00
62632;BME280;48703;51.248;-0.546;2023-11-19T09:12:43;100185;;;11.11;100.00
62632;BME280;48703;51.248;-0.546;2023-11-19T09:15:45;100188;;;11.17;100.00
62632;BME280;48703;51.248;-0.546;2023-11-19T09:18:47;100187;;;11.22;100.00
62632;BME280;48703;51.248;-0.546;2023-11-19T09:21:49;100187;;;11.28;100.00
62632;BME280;48703;51.248;-0.546;2023-11-19T09:24:51;100189;;;11.33;100.00
62632;BME280;48703;51.248;-0.546;2023-11-19T09:27:53;100198;;;11.37;100.00
62632;BME280;48703;51.248;-0.546;2023-11-19T09:30:55;100190;;;11.41;100.00
62632;BME280;48703;51.248;-0.546;2023-11-19T09:33:58;100197;;;11.43;100.00
62632;BME280;48703;51.248;-0.546;2023-11-19T09:37:00;100193;;;11.47;100.00
62632;BME280;48703;51.248;-0.546;2023-11-19T09:40:02;100198;;;11.48;100.00
62632;BME280;48703;51.248;-0.546;2023-11-19T09:43:04;100191;;;11.47;100.00
62632;BME280;48703;51.248;-0.546;2023-11-19T09:46:06;100191;;;11.45;100.00
62632;BME280;48703;51.248;-0.546;2023-11-19T09:49:08;100183;;;11.45;100.00
62632;BME280;48703;51.248;-0.546;2023-11-19T09:52:10;100172;;;11.46;100.00
62632;BME280;48703;51.248;-0.546;2023-11-19T09:55:12;100177;;;11.49;100.00
62632;BME280;48703;51.248;-0.546;2023-11-19T09:58:14;100172;;;11.51;100.00
62632;BME280;48703;51.248;-0.546;2023-11-19T10:01:16;100169;;;11.54;100.00
62632;BME280;48703;51.248;-0.546;2023-11-19T10:04:18;100166;;;11.57;100.00
62632;BME280;48703;51.248;-0.546;2023-11-19T10:07:20;100165;;;11.60;100.00
62632;BME280;48703;51.248;-0.546;2023-11-19T10:10:22;100166;;;11.64;100.00
62632;BME280;48703;51.248;-0.546;2023-11-19T10:13:26;100164;;;11.64;100.00
62632;BME280;48703;51.248;-0.546;2023-11-19T10:16:28;100165;;;11.66;100.00
62632;BME280;48703;51.248;-0.546;2023-11-19T10:19:29;100174;;;11.70;99.97
62632;BME280;48703;51.248;-0.546;2023-11-19T10:22:31;100180;;;11.72;100.00
62632;BME280;48703;51.248;-0.546;2023-11-19T10:25:33;100186;;;11.73;100.00
62632;BME280;48703;51.248;-0.546;2023-11-19T10:28:38;100187;;;11.75;100.00
62632;BME280;48703;51.248;-0.546;2023-11-19T10:31:37;100186;;;11.74;100.00
62632;BME280;48703;51.248;-0.546;2023-11-19T10:34:39;100178;;;11.73;100.00
62632;BME280;48703;51.248;-0.546;2023-11-19T10:37:41;100188;;;11.72;100.00
62632;BME280;48703;51.248;-0.546;2023-11-19T10:40:43;100175;;;11.73;100.00
62632;BME280;48703;51.248;-0.546;2023-11-19T10:43:45;100177;;;11.74;100.00
62632;BME280;48703;51.248;-0.546;2023-11-19T10:46:48;100176;;;11.78;100.00
62632;BME280;48703;51.248;-0.546;2023-11-19T10:49:49;100180;;;11.83;100.00
62632;BME280;48703;51.248;-0.546;2023-11-19T10:52:52;100179;;;11.89;100.00
62632;BME280;48703;51.248;-0.546;2023-11-19T10:55:53;100188;;;11.98;100.00
62632;BME280;48703;51.248;-0.546;2023-11-19T10:58:56;100176;;;12.04;100.00
62632;BME280;48703;51.248;-0.546;2023-11-19T11:01:58;100180;;;12.09;100.00
62632;BME280;48703;51.248;-0.546;2023-11-19T11:05:00;100174;;;12.11;100.00
62632;BME280;48703;51.248;-0.546;2023-11-19T11:08:02;100174;;;12.13;100.00
62632;BME280;48703;51.248;-0.546;2023-11-19T11:11:04;100179;;;12.13;100.00
62632;BME280;48703;51.248;-0.546;2023-11-19T11:14:06;100180;;;12.14;100.00
62632;BME280;48703;51.248;-0.546;2023-11-19T11:17:08;100175;;;12.17;100.00
62632;BME280;48703;51.248;-0.546;2023-11-19T11:20:10;100179;;;12.19;100.00
62632;BME280;48703;51.248;-0.546;2023-11-19T11:23:34;100180;;;12.22;100.00
62632;BME280;48703;51.248;-0.546;2023-11-19T11:26:21;100175;;;12.24;100.00
62632;BME280;48703;51.248;-0.546;2023-11-19T11:29:20;100180;;;12.25;100.00
62632;BME280;48703;51.248;-0.546;2023-11-19T11:32:21;100177;;;12.28;100.00
62632;BME280;48703;51.248;-0.546;2023-11-19T11:35:24;100168;;;12.30;100.00
62632;BME280;48703;51.248;-0.546;2023-11-19T11:38:22;100160;;;12.32;100.00
62632;BME280;48703;51.248;-0.546;2023-11-19T11:41:25;100157;;;12.34;100.00
62632;BME280;48703;51.248;-0.546;2023-11-19T11:44:48;100155;;;12.34;100.00
62632;BME280;48703;51.248;-0.546;2023-11-19T11:48:00;100146;;;12.36;100.00
62632;BME280;48703;51.248;-0.546;2023-11-19T11:50:31;100149;;;12.38;100.00
62632;BME280;48703;51.248;-0.546;2023-11-19T11:53:33;100142;;;12.40;100.00
62632;BME280;48703;51.248;-0.546;2023-11-19T11:56:36;100139;;;12.42;100.00
62632;BME280;48703;51.248;-0.546;2023-11-19T11:59:42;100134;;;12.44;100.00
62632;BME280;48703;51.248;-0.546;2023-11-19T12:02:39;100134;;;12.45;100.00
62632;BME280;48703;51.248;-0.546;2023-11-19T12:05:42;100133;;;12.46;100.00
62632;BME280;48703;51.248;-0.546;2023-11-19T12:08:43;100130;;;12.47;100.00
62632;BME280;48703;51.248;-0.546;2023-11-19T12:11:47;100126;;;12.50;100.00
62632;BME280;48703;51.248;-0.546;2023-11-19T12:15:03;100130;;;12.50;100.00
62632;BME280;48703;51.248;-0.546;2023-11-19T12:17:49;100135;;;12.50;100.00
62632;BME280;48703;51.248;-0.546;2023-11-19T12:20:51;100130;;;12.50;100.00
62632;BME280;48703;51.248;-0.546;2023-11-19T12:23:53;100132;;;12.51;100.00
62632;BME280;48703;51.248;-0.546;2023-11-19T12:26:56;100129;;;12.53;100.00
62632;BME280;48703;51.248;-0.546;2023-11-19T12:29:58;100126;;;12.56;100.00
62632;BME280;48703;51.248;-0.546;2023-11-19T12:33:00;100129;;;12.62;100.00
62632;BME280;48703;51.248;-0.546;2023-11-19T12:36:02;100120;;;12.68;100.00
62632;BME280;48703;51.248;-0.546;2023-11-19T12:39:04;100120;;;12.71;100.00
62632;BME280;48703;51.248;-0.546;2023-11-19T12:42:06;100114;;;12.72;100.00
62632;BME280;48703;51.248;-0.546;2023-11-19T12:45:08;100108;;;12.72;100.00
62632;BME280;48703;51.248;-0.546;2023-11-19T12:48:10;100106;;;12.72;100.00
62632;BME280;48703;51.248;-0.546;2023-11-19T12:51:12;100105;;;12.74;100.00
62632;BME280;48703;51.248;-0.546;2023-11-19T12:54:14;100106;;;12.75;100.00
62632;BME280;48703;51.248;-0.546;2023-11-19T12:57:16;100108;;;12.76;100.00
62632;BME280;48703;51.248;-0.546;2023-11-19T13:00:19;100109;;;12.78;100.00
62632;BME280;48703;51.248;-0.546;2023-11-19T13:03:28;100108;;;12.78;100.00
62632;BME280;48703;51.248;-0.546;2023-11-19T13:06:23;100104;;;12.79;100.00
62632;BME280;48703;51.248;-0.546;2023-11-19T13:09:25;100104;;;12.80;100.00
62632;BME280;48703;51.248;-0.546;2023-11-19T13:12:27;100102;;;12.82;100.00
62632;BME280;48703;51.248;-0.546;2023-11-19T13:15:29;100094;;;12.84;100.00
62632;BME280;48703;51.248;-0.546;2023-11-19T13:18:31;100093;;;12.87;100.00
62632;BME280;48703;51.248;-0.546;2023-11-19T13:21:33;100095;;;12.87;100.00
62632;BME280;48703;51.248;-0.546;2023-11-19T13:24:35;100095;;;12.88;100.00
62632;BME280;48703;51.248;-0.546;2023-11-19T13:27:37;100098;;;12.88;100.00
62632;BME280;48703;51.248;-0.546;2023-11-19T13:30:39;100096;;;12.87;100.00
62632;BME280;48703;51.248;-0.546;2023-11-19T13:33:41;100099;;;12.85;100.00
62632;BME280;48703;51.248;-0.546;2023-11-19T13:36:43;100092;;;12.84;100.00
62632;BME280;48703;51.248;-0.546;2023-11-19T13:39:45;100087;;;12.85;100.00
62632;BME280;48703;51.248;-0.546;2023-11-19T13:42:47;100085;;;12.84;100.00
62632;BME280;48703;51.248;-0.546;2023-11-19T13:45:49;100082;;;12.82;100.00
62632;BME280;48703;51.248;-0.546;2023-11-19T13:48:52;100078;;;12.81;100.00
62632;BME280;48703;51.248;-0.546;2023-11-19T13:51:54;100075;;;12.81;100.00
62632;BME280;48703;51.248;-0.546;2023-11-19T13:54:56;100073;;;12.81;100.00
62632;BME280;48703;51.248;-0.546;2023-11-19T13:57:58;100070;;;12.82;100.00
62632;BME280;48703;51.248;-0.546;2023-11-19T14:01:00;100064;;;12.85;100.00
62632;BME280;48703;51.248;-0.546;2023-11-19T14:04:02;100065;;;12.87;100.00
62632;BME280;48703;51.248;-0.546;2023-11-19T14:07:04;100068;;;12.90;100.00
62632;BME280;48703;51.248;-0.546;2023-11-19T14:10:06;100071;;;12.91;100.00
62632;BME280;48703;51.248;-0.546;2023-11-19T14:13:08;100064;;;12.91;100.00
62632;BME280;48703;51.248;-0.546;2023-11-19T14:16:10;100055;;;12.91;100.00
62632;BME280;48703;51.248;-0.546;2023-11-19T14:19:12;100066;;;12.90;100.00
62632;BME280;48703;51.248;-0.546;2023-11-19T14:22:14;100066;;;12.88;100.00
62632;BME280;48703;51.248;-0.546;2023-11-19T14:25:16;100063;;;12.87;100.00
62632;BME280;48703;51.248;-0.546;2023-11-19T14:28:18;100062;;;12.85;100.00
62632;BME280;48703;51.248;-0.546;2023-11-19T14:31:20;100064;;;12.84;100.00
62632;BME280;48703;51.248;-0.546;2023-11-19T14:34:23;100066;;;12.83;100.00
62632;BME280;48703;51.248;-0.546;2023-11-19T14:37:25;100064;;;12.82;100.00
62632;BME280;48703;51.248;-0.546;2023-11-19T14:40:27;100064;;;12.82;100.00
62632;BME280;48703;51.248;-0.546;2023-11-19T14:43:29;100068;;;12.82;100.00
62632;BME280;48703;51.248;-0.546;2023-11-19T14:46:31;100074;;;12.83;100.00
62632;BME280;48703;51.248;-0.546;2023-11-19T14:49:34;100079;;;12.83;100.00
62632;BME280;48703;51.248;-0.546;2023-11-19T14:52:35;100082;;;12.82;100.00
62632;BME280;48703;51.248;-0.546;2023-11-19T14:55:37;100084;;;12.82;100.00
62632;BME280;48703;51.248;-0.546;2023-11-19T14:58:39;100091;;;12.81;100.00
62632;BME280;48703;51.248;-0.546;2023-11-19T15:01:41;100097;;;12.78;100.00
62632;BME280;48703;51.248;-0.546;2023-11-19T15:04:44;100100;;;12.76;100.00
62632;BME280;48703;51.248;-0.546;2023-11-19T15:07:45;100105;;;12.75;100.00
62632;BME280;48703;51.248;-0.546;2023-11-19T15:10:47;100103;;;12.74;100.00
62632;BME280;48703;51.248;-0.546;2023-11-19T15:13:49;100099;;;12.72;100.00
62632;BME280;48703;51.248;-0.546;2023-11-19T15:16:52;100106;;;12.70;100.00
62632;BME280;48703;51.248;-0.546;2023-11-19T15:19:54;100109;;;12.68;100.00
62632;BME280;48703;51.248;-0.546;2023-11-19T15:22:56;100111;;;12.67;100.00
62632;BME280;48703;51.248;-0.546;2023-11-19T15:25:58;100112;;;12.67;100.00
62632;BME280;48703;51.248;-0.546;2023-11-19T15:29:00;100119;;;12.65;100.00
62632;BME280;48703;51.248;-0.546;2023-11-19T15:32:02;100122;;;12.63;100.00
62632;BME280;48703;51.248;-0.546;2023-11-19T15:35:04;100120;;;12.61;100.00
62632;BME280;48703;51.248;-0.546;2023-11-19T15:38:06;100119;;;12.59;100.00
62632;BME280;48703;51.248;-0.546;2023-11-19T15:41:08;100118;;;12.56;100.00
62632;BME280;48703;51.248;-0.546;2023-11-19T15:44:10;100121;;;12.53;100.00
62632;BME280;48703;51.248;-0.546;2023-11-19T15:47:13;100128;;;12.51;100.00
62632;BME280;48703;51.248;-0.546;2023-11-19T15:50:14;100134;;;12.49;100.00
62632;BME280;48703;51.248;-0.546;2023-11-19T15:53:16;100135;;;12.48;100.00
62632;BME280;48703;51.248;-0.546;2023-11-19T15:56:18;100142;;;12.47;100.00
62632;BME280;48703;51.248;-0.546;2023-11-19T15:59:21;100144;;;12.45;100.00
62632;BME280;48703;51.248;-0.546;2023-11-19T16:02:23;100152;;;12.44;100.00